createdAt,value
2022-08-31T00:00:58.895Z,4.72
2022-08-31T00:03:45.516Z,4.10
2022-08-31T00:06:13.145Z,3.72
2022-08-31T00:08:59.485Z,4.22
2022-08-31T00:11:30.969Z,4.25
2022-08-31T00:14:00.549Z,3.97
2022-08-31T00:16:30.464Z,3.83
2022-08-31T00:18:57.931Z,4.03
2022-08-31T00:21:27.096Z,3.67
2022-08-31T00:23:55.559Z,4.32
2022-08-31T00:26:23.680Z,4.45
2022-08-31T00:28:51.826Z,3.97
2022-08-31T00:31:19.934Z,4.15
2022-08-31T00:33:52.489Z,3.65
2022-08-31T00:36:23.356Z,4.70
2022-08-31T00:38:52.182Z,4.35
2022-08-31T00:41:25.400Z,4.82
2022-08-31T00:43:54.427Z,4.82
2022-08-31T00:46:25.407Z,4.78
2022-08-31T00:48:58.265Z,4.62
2022-08-31T00:51:28.555Z,4.70
2022-08-31T00:53:56.223Z,4.62
2022-08-31T00:56:24.093Z,4.32
2022-08-31T00:58:54.887Z,4.55
2022-08-31T01:01:22.952Z,3.95
2022-08-31T01:03:50.512Z,3.85
2022-08-31T01:06:18.979Z,4.05
2022-08-31T01:08:47.044Z,3.97
2022-08-31T01:11:15.011Z,4.57
2022-08-31T01:13:45.017Z,4.05
2022-08-31T01:16:20.438Z,4.45
2022-08-31T01:18:48.448Z,3.78
2022-08-31T01:21:27.299Z,4.47
2022-08-31T01:23:58.141Z,4.30
2022-08-31T01:26:27.710Z,4.28
2022-08-31T01:28:58.550Z,4.65
2022-08-31T01:31:31.306Z,4.32
2022-08-31T01:33:59.259Z,4.82
2022-08-31T01:36:27.392Z,4.85
2022-08-31T01:38:56.829Z,4.57
2022-08-31T01:41:24.523Z,5.00
2022-08-31T01:43:53.175Z,4.95
2022-08-31T01:46:20.967Z,5.25
2022-08-31T01:48:49.381Z,4.00
2022-08-31T01:51:19.337Z,4.60
2022-08-31T01:53:48.918Z,4.55
2022-08-31T01:56:29.198Z,4.95
2022-08-31T01:58:57.593Z,4.85
2022-08-31T02:01:33.237Z,4.47
2022-08-31T02:04:03.881Z,4.68
2022-08-31T02:06:32.517Z,4.72
2022-08-31T02:09:01.216Z,4.78
2022-08-31T02:11:29.222Z,5.03
2022-08-31T02:13:57.106Z,4.65
2022-08-31T02:16:25.035Z,4.90
2022-08-31T02:18:52.934Z,4.50
2022-08-31T02:21:20.437Z,5.07
2022-08-31T02:23:48.266Z,4.78
2022-08-31T02:26:15.996Z,5.45
2022-08-31T02:28:44.712Z,5.15
2022-08-31T02:31:12.828Z,5.00
2022-08-31T02:33:44.173Z,5.22
2022-08-31T02:36:11.999Z,4.87
2022-08-31T02:38:39.595Z,4.82
2022-08-31T02:41:07.835Z,5.18
2022-08-31T02:43:35.640Z,5.00
2022-08-31T02:46:03.118Z,5.57
2022-08-31T02:48:33.197Z,4.97
2022-08-31T02:51:08.244Z,4.62
2022-08-31T02:53:36.668Z,4.75
2022-08-31T02:56:05.370Z,5.40
2022-08-31T02:58:33.152Z,4.78
2022-08-31T03:01:00.886Z,4.60
2022-08-31T03:03:28.635Z,4.62
2022-08-31T03:05:56.143Z,4.60
2022-08-31T03:08:24.389Z,5.07
2022-08-31T03:10:52.152Z,4.50
2022-08-31T03:13:19.980Z,5.35
2022-08-31T03:15:48.339Z,4.47
2022-08-31T03:18:16.790Z,4.87
2022-08-31T03:20:44.229Z,5.20
2022-08-31T03:23:12.406Z,5.10
2022-08-31T03:25:39.986Z,5.37
2022-08-31T03:28:08.562Z,4.85
2022-08-31T03:30:37.065Z,4.87
2022-08-31T03:33:06.341Z,5.50
2022-08-31T03:35:34.743Z,5.00
2022-08-31T03:38:03.393Z,5.32
2022-08-31T03:40:31.011Z,4.95
2022-08-31T03:42:58.949Z,5.60
2022-08-31T03:45:27.904Z,5.82
2022-08-31T03:47:55.498Z,5.10
2022-08-31T03:50:24.277Z,5.78
2022-08-31T03:52:54.228Z,5.55
2022-08-31T03:55:23.138Z,5.30
2022-08-31T03:57:51.523Z,5.35
2022-08-31T04:00:19.338Z,5.10
2022-08-31T04:02:47.618Z,5.60
2022-08-31T04:05:21.415Z,5.55
2022-08-31T04:08:00.821Z,5.18
2022-08-31T04:10:32.481Z,4.97
2022-08-31T04:13:06.324Z,5.60
2022-08-31T04:15:34.354Z,5.68
2022-08-31T04:18:04.876Z,5.07
2022-08-31T04:20:37.397Z,5.55
2022-08-31T04:23:05.208Z,5.07
2022-08-31T04:25:37.975Z,4.93
2022-08-31T04:28:06.124Z,5.53
2022-08-31T04:30:33.673Z,5.55
2022-08-31T04:33:02.227Z,5.97
2022-08-31T04:35:30.073Z,5.72
2022-08-31T04:37:57.659Z,4.87
2022-08-31T04:40:25.496Z,5.32
2022-08-31T04:42:54.354Z,5.32
2022-08-31T04:45:22.339Z,5.85
2022-08-31T04:47:50.302Z,5.72
2022-08-31T04:50:18.178Z,5.40
2022-08-31T04:53:03.951Z,5.30
2022-08-31T04:55:33.017Z,5.40
2022-08-31T04:58:00.646Z,5.40
2022-08-31T05:00:28.423Z,5.43
2022-08-31T05:02:57.970Z,4.85
2022-08-31T05:05:25.712Z,4.75
2022-08-31T05:07:53.244Z,4.95
2022-08-31T05:10:21.755Z,4.95
2022-08-31T05:12:51.827Z,4.80
2022-08-31T05:15:20.555Z,5.25
2022-08-31T05:17:48.748Z,5.15
2022-08-31T05:20:16.455Z,4.87
2022-08-31T05:22:43.886Z,5.30
2022-08-31T05:25:11.753Z,4.35
2022-08-31T05:27:42.152Z,5.15
2022-08-31T05:30:10.431Z,5.37
2022-08-31T05:32:41.310Z,5.10
2022-08-31T05:35:10.356Z,5.10
2022-08-31T05:37:39.324Z,4.97
2022-08-31T05:40:08.497Z,5.15
2022-08-31T05:42:36.532Z,4.90
2022-08-31T05:45:04.551Z,5.20
2022-08-31T05:47:32.204Z,5.10
2022-08-31T05:49:59.762Z,4.78
2022-08-31T05:52:28.523Z,4.80
2022-08-31T05:54:56.336Z,4.43
2022-08-31T05:57:26.673Z,4.80
2022-08-31T05:59:55.496Z,4.78
2022-08-31T06:02:29.455Z,4.55
2022-08-31T06:05:00.449Z,4.03
2022-08-31T06:07:27.960Z,4.70
2022-08-31T06:09:56.042Z,5.10
2022-08-31T06:12:26.023Z,4.55
2022-08-31T06:14:55.578Z,4.22
2022-08-31T06:17:24.530Z,4.28
2022-08-31T06:19:52.465Z,4.07
2022-08-31T06:22:20.268Z,4.12
2022-08-31T06:24:48.230Z,4.10
2022-08-31T06:27:16.605Z,4.07
2022-08-31T06:29:45.144Z,3.55
2022-08-31T06:32:14.006Z,3.70
2022-08-31T06:34:42.822Z,3.42
2022-08-31T06:37:19.004Z,3.70
2022-08-31T06:39:47.773Z,3.50
2022-08-31T06:42:15.322Z,3.50
2022-08-31T06:44:45.656Z,3.67
2022-08-31T06:47:15.479Z,3.60
2022-08-31T06:49:43.157Z,3.58
2022-08-31T06:52:10.755Z,3.17
2022-08-31T06:54:38.782Z,3.17
2022-08-31T06:57:07.440Z,2.92
2022-08-31T06:59:35.298Z,3.50
2022-08-31T07:02:04.711Z,3.28
2022-08-31T07:04:35.331Z,3.22
2022-08-31T07:07:05.156Z,3.03
2022-08-31T07:09:33.651Z,3.05
2022-08-31T07:12:01.446Z,3.22
2022-08-31T07:14:29.445Z,3.60
2022-08-31T07:16:58.681Z,3.47
2022-08-31T07:19:27.113Z,3.37
2022-08-31T07:21:58.447Z,3.65
2022-08-31T07:24:30.482Z,3.40
2022-08-31T07:27:00.805Z,3.20
2022-08-31T07:29:31.718Z,3.40
2022-08-31T07:32:00.083Z,3.25
2022-08-31T07:34:30.203Z,3.47
2022-08-31T07:37:19.468Z,3.28
2022-08-31T07:40:07.768Z,3.72
2022-08-31T07:42:44.522Z,3.20
2022-08-31T07:45:29.420Z,3.15
2022-08-31T07:48:00.563Z,3.28
2022-08-31T07:50:31.618Z,2.80
2022-08-31T07:53:00.480Z,3.72
2022-08-31T07:55:29.389Z,3.12
2022-08-31T07:57:59.001Z,3.50
2022-08-31T08:00:28.844Z,3.10
2022-08-31T08:03:01.794Z,3.28
2022-08-31T08:05:38.606Z,3.20
2022-08-31T08:08:13.441Z,2.90
2022-08-31T08:10:43.677Z,2.85
2022-08-31T08:13:20.504Z,2.87
2022-08-31T08:15:50.833Z,2.97
2022-08-31T08:18:21.086Z,2.72
2022-08-31T08:20:49.548Z,3.00
2022-08-31T08:23:25.852Z,2.67
2022-08-31T08:26:01.443Z,2.17
2022-08-31T08:28:45.976Z,2.40
2022-08-31T08:31:17.640Z,2.90
2022-08-31T08:33:46.001Z,2.65
2022-08-31T08:36:18.957Z,2.45
2022-08-31T08:38:50.559Z,2.65
2022-08-31T08:41:22.281Z,2.83
2022-08-31T08:43:57.324Z,2.40
2022-08-31T08:46:38.841Z,2.58
2022-08-31T08:49:15.096Z,2.78
2022-08-31T08:51:43.937Z,2.72
2022-08-31T08:54:15.898Z,2.70
2022-08-31T08:56:47.810Z,2.50
2022-08-31T08:59:19.534Z,2.60
2022-08-31T09:01:50.028Z,2.62
2022-08-31T09:04:45.433Z,2.50
2022-08-31T09:07:37.484Z,2.33
2022-08-31T09:10:17.437Z,2.60
2022-08-31T09:13:30.237Z,2.53
2022-08-31T09:16:11.356Z,2.50
2022-08-31T09:18:54.333Z,2.70
2022-08-31T09:21:26.012Z,2.60
2022-08-31T09:24:02.072Z,2.78
2022-08-31T09:26:46.904Z,2.75
2022-08-31T09:29:24.682Z,2.80
2022-08-31T09:32:07.311Z,2.60
2022-08-31T09:34:42.190Z,2.70
2022-08-31T09:37:17.213Z,2.42
2022-08-31T09:39:47.980Z,2.37
2022-08-31T09:42:32.043Z,2.65
2022-08-31T09:45:09.661Z,2.58
2022-08-31T09:47:51.347Z,2.85
2022-08-31T09:50:32.481Z,2.70
2022-08-31T09:53:42.803Z,2.37
2022-08-31T09:56:22.546Z,2.60
2022-08-31T09:58:53.103Z,2.35
2022-08-31T10:01:44.980Z,2.60
2022-08-31T10:04:19.539Z,2.67
2022-08-31T10:07:09.523Z,2.72
2022-08-31T10:09:45.023Z,2.85
2022-08-31T10:12:39.814Z,2.53
2022-08-31T10:15:20.974Z,2.33
2022-08-31T10:18:03.310Z,2.50
2022-08-31T10:20:36.023Z,2.87
2022-08-31T10:23:19.143Z,2.60
2022-08-31T10:25:54.673Z,2.47
2022-08-31T10:28:32.521Z,2.70
2022-08-31T10:31:07.548Z,2.33
2022-08-31T10:34:01.299Z,2.40
2022-08-31T10:36:36.482Z,2.42
2022-08-31T10:39:11.784Z,2.50
2022-08-31T10:41:44.306Z,2.30
2022-08-31T10:44:24.230Z,2.60
2022-08-31T10:46:54.568Z,2.40
2022-08-31T10:49:22.370Z,2.45
2022-08-31T10:51:56.612Z,2.40
2022-08-31T10:54:39.222Z,2.40
2022-08-31T10:57:32.255Z,2.47
2022-08-31T11:00:42.448Z,2.53
2022-08-31T11:03:42.264Z,2.33
2022-08-31T11:06:19.143Z,2.67
2022-08-31T11:09:15.946Z,2.78
2022-08-31T11:11:51.896Z,2.70
2022-08-31T11:14:49.878Z,2.50
2022-08-31T11:17:42.537Z,2.50
2022-08-31T11:20:34.943Z,2.70
2022-08-31T11:23:43.051Z,3.05
2022-08-31T11:26:39.198Z,3.12
2022-08-31T11:29:13.053Z,2.53
2022-08-31T11:31:41.553Z,2.40
2022-08-31T11:34:17.517Z,2.60
2022-08-31T11:36:55.396Z,2.58
2022-08-31T11:39:45.530Z,2.80
2022-08-31T11:42:18.793Z,2.58
2022-08-31T11:45:00.794Z,2.90
2022-08-31T11:47:28.088Z,2.83
2022-08-31T11:50:00.171Z,3.12
2022-08-31T11:52:32.750Z,2.72
2022-08-31T11:55:10.029Z,2.78
2022-08-31T11:58:06.367Z,2.60
2022-08-31T12:01:06.911Z,2.78
2022-08-31T12:03:45.964Z,2.97
2022-08-31T12:06:25.758Z,2.50
2022-08-31T12:09:02.529Z,2.47
2022-08-31T12:11:48.424Z,2.45
2022-08-31T12:14:50.292Z,2.95
2022-08-31T12:17:34.571Z,2.60
2022-08-31T12:20:20.068Z,2.55
2022-08-31T12:26:01.526Z,2.97
2022-08-31T12:28:58.353Z,2.55
2022-08-31T12:31:26.465Z,2.75
2022-08-31T12:34:05.763Z,2.87
2022-08-31T12:36:36.982Z,2.42
2022-08-31T12:39:21.081Z,2.90
2022-08-31T12:41:57.234Z,2.53
2022-08-31T12:44:29.407Z,2.55
2022-08-31T12:46:59.672Z,2.83
2022-08-31T12:49:55.300Z,2.60
2022-08-31T12:52:31.829Z,2.80
2022-08-31T12:55:14.550Z,2.50
2022-08-31T12:57:48.995Z,2.90
2022-08-31T13:00:27.283Z,2.75
2022-08-31T13:02:59.603Z,2.67
2022-08-31T13:05:27.450Z,3.08
2022-08-31T13:07:56.173Z,2.83
2022-08-31T13:10:38.323Z,2.60
2022-08-31T13:13:08.413Z,3.00
2022-08-31T13:15:39.939Z,2.70
2022-08-31T13:18:23.403Z,3.05
2022-08-31T13:21:02.444Z,2.50
2022-08-31T13:23:34.893Z,2.33
2022-08-31T13:26:05.926Z,2.83
2022-08-31T13:28:35.085Z,3.20
2022-08-31T13:31:05.579Z,2.60
2022-08-31T13:33:40.446Z,2.40
2022-08-31T13:36:32.681Z,2.80
2022-08-31T13:39:04.155Z,2.47
2022-08-31T13:41:38.398Z,2.70
2022-08-31T13:46:44.321Z,2.70
2022-08-31T13:49:31.011Z,2.85
2022-08-31T13:51:59.117Z,2.22
2022-08-31T13:54:31.605Z,2.60
2022-08-31T13:57:25.932Z,2.53
2022-08-31T13:59:53.791Z,2.72
2022-08-31T14:02:30.844Z,2.87
2022-08-31T14:05:07.918Z,2.55
2022-08-31T14:07:36.146Z,2.80
2022-08-31T14:10:14.234Z,2.78
2022-08-31T14:12:59.299Z,2.83
2022-08-31T14:15:36.354Z,2.78
2022-08-31T14:18:24.448Z,2.42
2022-08-31T14:21:26.391Z,3.10
2022-08-31T14:24:01.350Z,2.50
2022-08-31T14:26:34.993Z,2.67
2022-08-31T14:29:10.212Z,2.50
2022-08-31T14:31:43.270Z,2.70
2022-08-31T14:34:25.542Z,2.97
2022-08-31T14:37:07.660Z,3.42
2022-08-31T14:39:41.935Z,2.30
2022-08-31T14:42:18.775Z,2.67
2022-08-31T14:44:53.781Z,2.50
2022-08-31T14:47:24.343Z,2.70
2022-08-31T14:49:52.248Z,2.65
2022-08-31T14:52:19.699Z,3.03
2022-08-31T14:54:47.832Z,2.75
2022-08-31T14:57:18.475Z,2.80
2022-08-31T14:59:47.238Z,2.90
2022-08-31T15:02:21.289Z,2.75
2022-08-31T15:04:48.989Z,2.85
2022-08-31T15:07:17.785Z,3.75
2022-08-31T15:09:46.792Z,2.83
2022-08-31T15:12:15.668Z,2.70
2022-08-31T15:14:45.037Z,2.80
2022-08-31T15:17:19.814Z,2.95
2022-08-31T15:19:50.399Z,3.03
2022-08-31T15:22:18.965Z,2.85
2022-08-31T15:24:46.807Z,3.22
2022-08-31T15:27:16.515Z,2.87
2022-08-31T15:29:47.434Z,2.78
2022-08-31T15:32:17.325Z,2.70
2022-08-31T15:34:50.140Z,2.95
2022-08-31T15:37:17.765Z,2.60
2022-08-31T15:39:49.029Z,2.67
2022-08-31T15:42:21.533Z,3.08
2022-08-31T15:44:57.265Z,3.12
2022-08-31T15:47:56.120Z,3.10
2022-08-31T15:50:31.888Z,3.17
2022-08-31T15:53:08.689Z,2.70
2022-08-31T15:55:40.988Z,2.92
2022-08-31T15:58:09.831Z,2.45
2022-08-31T16:00:38.244Z,2.87
2022-08-31T16:03:06.279Z,2.95
2022-08-31T16:05:39.584Z,2.90
2022-08-31T16:08:11.251Z,2.85
2022-08-31T16:10:45.102Z,2.95
2022-08-31T16:13:15.833Z,2.72
2022-08-31T16:15:51.354Z,2.72
2022-08-31T16:18:21.744Z,2.60
2022-08-31T16:20:50.558Z,2.67
2022-08-31T16:23:18.352Z,3.15
2022-08-31T16:25:49.108Z,2.90
2022-08-31T16:28:19.415Z,2.90
2022-08-31T16:30:47.688Z,3.15
2022-08-31T16:33:15.259Z,2.95
2022-08-31T16:35:44.708Z,2.70
2022-08-31T16:38:13.030Z,3.05
2022-08-31T16:40:41.725Z,3.22
2022-08-31T16:43:09.890Z,3.25
2022-08-31T16:45:39.420Z,2.97
2022-08-31T16:48:29.394Z,2.90
2022-08-31T16:51:01.903Z,3.22
2022-08-31T16:53:30.175Z,3.22
2022-08-31T16:56:00.176Z,3.08
2022-08-31T16:58:50.502Z,2.70
2022-08-31T17:01:20.892Z,2.83
2022-08-31T17:03:54.128Z,2.87
2022-08-31T17:06:23.943Z,2.80
2022-08-31T17:09:00.366Z,2.72
2022-08-31T17:11:32.304Z,3.58
2022-08-31T17:14:01.464Z,3.10
2022-08-31T17:16:33.173Z,3.50
2022-08-31T17:19:02.080Z,2.67
2022-08-31T17:21:32.144Z,2.95
2022-08-31T17:24:02.028Z,2.85
2022-08-31T17:26:32.727Z,2.90
2022-08-31T17:29:05.685Z,2.90
2022-08-31T17:31:36.723Z,2.58
2022-08-31T17:34:04.645Z,3.25
2022-08-31T17:36:37.302Z,2.50
2022-08-31T17:39:06.652Z,2.53
2022-08-31T17:41:36.165Z,2.65
2022-08-31T17:44:04.368Z,2.80
2022-08-31T17:46:33.126Z,2.80
2022-08-31T17:49:01.109Z,2.87
2022-08-31T17:51:30.904Z,2.87
2022-08-31T17:54:01.971Z,2.78
2022-08-31T17:56:48.294Z,2.83
2022-08-31T17:59:19.010Z,2.60
2022-08-31T18:01:49.021Z,2.97
2022-08-31T18:04:17.625Z,2.80
2022-08-31T18:06:45.647Z,2.42
2022-08-31T18:09:15.108Z,2.87
2022-08-31T18:11:46.839Z,2.90
2022-08-31T18:14:19.088Z,2.95
2022-08-31T18:16:47.786Z,3.03
2022-08-31T18:19:16.874Z,2.83
2022-08-31T18:21:56.274Z,2.97
2022-08-31T18:24:23.752Z,2.90
2022-08-31T18:26:52.059Z,2.85
2022-08-31T18:29:24.327Z,3.03
2022-08-31T18:31:54.179Z,2.90
2022-08-31T18:34:23.827Z,3.08
2022-08-31T18:36:53.765Z,3.10
2022-08-31T18:39:47.752Z,2.92
2022-08-31T18:42:32.231Z,2.80
2022-08-31T18:45:18.957Z,2.92
2022-08-31T18:48:20.924Z,2.95
2022-08-31T18:50:44.932Z,2.92
2022-08-31T18:53:27.426Z,3.03
2022-08-31T18:56:10.172Z,3.10
2022-08-31T18:58:38.795Z,3.33
2022-08-31T19:01:11.594Z,2.97
2022-08-31T19:03:40.184Z,2.58
2022-08-31T19:06:08.876Z,2.85
2022-08-31T19:08:36.575Z,3.28
2022-08-31T19:11:08.150Z,3.35
2022-08-31T19:13:35.816Z,2.97
2022-08-31T19:16:15.225Z,3.25
2022-08-31T19:18:44.552Z,3.35
2022-08-31T19:21:18.781Z,3.10
2022-08-31T19:23:47.544Z,3.30
2022-08-31T19:26:30.100Z,3.05
2022-08-31T19:28:58.718Z,2.50
2022-08-31T19:31:27.742Z,2.70
2022-08-31T19:33:57.178Z,2.75
2022-08-31T19:36:27.722Z,2.67
2022-08-31T19:38:56.586Z,2.53
2022-08-31T19:41:25.561Z,2.55
2022-08-31T19:44:05.619Z,2.50
2022-08-31T19:46:41.031Z,2.10
2022-08-31T19:49:11.339Z,2.80
2022-08-31T19:51:45.745Z,2.12
2022-08-31T19:54:13.972Z,2.30
2022-08-31T19:56:42.959Z,2.40
2022-08-31T19:59:12.195Z,2.00
2022-08-31T20:01:39.866Z,2.00
2022-08-31T20:04:16.323Z,2.37
2022-08-31T20:06:45.680Z,2.03
2022-08-31T20:09:13.812Z,2.30
2022-08-31T20:11:41.398Z,2.65
2022-08-31T20:14:08.864Z,2.03
2022-08-31T20:16:41.738Z,2.20
2022-08-31T20:19:14.074Z,2.17
2022-08-31T20:21:42.146Z,1.83
2022-08-31T20:24:12.946Z,1.98
2022-08-31T20:26:51.771Z,2.17
2022-08-31T20:29:20.719Z,2.25
2022-08-31T20:31:50.404Z,2.20
2022-08-31T20:34:19.659Z,1.90
2022-08-31T20:36:50.139Z,2.37
2022-08-31T20:39:19.141Z,2.25
2022-08-31T20:41:48.249Z,2.15
2022-08-31T20:44:21.380Z,2.12
2022-08-31T20:47:10.837Z,2.10
2022-08-31T20:49:43.631Z,1.60
2022-08-31T20:52:13.325Z,2.10
2022-08-31T20:54:43.099Z,2.33
2022-08-31T20:57:13.407Z,2.10
2022-08-31T20:59:41.556Z,2.25
2022-08-31T21:02:09.629Z,1.83
2022-08-31T21:04:39.826Z,2.05
2022-08-31T21:07:11.959Z,2.30
2022-08-31T21:09:41.214Z,2.30
2022-08-31T21:12:10.233Z,2.47
2022-08-31T21:14:40.992Z,1.92
2022-08-31T21:17:08.448Z,2.03
2022-08-31T21:19:39.170Z,2.15
2022-08-31T21:22:09.261Z,2.20
2022-08-31T21:24:38.317Z,2.20
2022-08-31T21:27:09.670Z,1.90
2022-08-31T21:29:38.051Z,2.33
2022-08-31T21:32:07.766Z,2.30
2022-08-31T21:34:35.526Z,2.25
2022-08-31T21:37:03.232Z,2.33
2022-08-31T21:39:32.423Z,2.20
2022-08-31T21:41:59.882Z,2.30
2022-08-31T21:44:28.248Z,2.17
2022-08-31T21:46:55.850Z,2.10
2022-08-31T21:49:23.792Z,2.42
2022-08-31T21:51:54.423Z,2.28
2022-08-31T21:54:27.249Z,2.33
2022-08-31T21:56:59.276Z,2.42
2022-08-31T21:59:29.606Z,2.20
2022-08-31T22:02:00.363Z,2.33
2022-08-31T22:04:31.679Z,2.00
2022-08-31T22:06:59.721Z,2.30
2022-08-31T22:09:28.996Z,1.87
2022-08-31T22:11:58.112Z,2.55
2022-08-31T22:14:32.122Z,2.03
2022-08-31T22:17:05.529Z,2.10
2022-08-31T22:19:36.691Z,2.08
2022-08-31T22:22:07.151Z,2.00
2022-08-31T22:24:36.272Z,2.08
2022-08-31T22:27:06.906Z,2.08
2022-08-31T22:29:35.736Z,1.92
2022-08-31T22:32:10.066Z,2.30
2022-08-31T22:34:38.859Z,1.80
2022-08-31T22:37:25.380Z,1.60
2022-08-31T22:39:55.320Z,1.70
2022-08-31T22:42:23.511Z,1.58
2022-08-31T22:44:51.296Z,1.60
2022-08-31T22:47:19.380Z,1.62
2022-08-31T22:49:47.402Z,1.67
2022-08-31T22:52:17.418Z,2.00
2022-08-31T22:54:45.802Z,2.08
2022-08-31T22:57:13.236Z,2.12
2022-08-31T22:59:42.405Z,2.15
2022-08-31T23:02:10.225Z,2.25
2022-08-31T23:04:43.787Z,1.98
2022-08-31T23:07:16.324Z,2.17
2022-08-31T23:09:44.371Z,2.78
2022-08-31T23:12:12.270Z,2.40
2022-08-31T23:14:42.558Z,2.17
2022-08-31T23:17:10.611Z,2.28
2022-08-31T23:19:40.961Z,1.85
2022-08-31T23:22:11.868Z,2.40
2022-08-31T23:24:51.303Z,2.20
2022-08-31T23:27:20.915Z,2.05
2022-08-31T23:29:52.255Z,2.28
2022-08-31T23:32:21.588Z,1.75
2022-08-31T23:34:52.595Z,2.35
2022-08-31T23:37:23.162Z,2.20
2022-08-31T23:39:54.423Z,1.80
2022-08-31T23:42:23.441Z,2.05
2022-08-31T23:44:51.159Z,1.80
2022-08-31T23:47:25.873Z,2.00
2022-08-31T23:49:53.426Z,2.30
2022-08-31T23:52:23.837Z,2.00
2022-08-31T23:54:54.162Z,1.92
2022-08-31T23:57:32.221Z,2.20
